createdAt,value
2016-09-17T00:00:20.581Z,19.24
2016-09-17T00:01:19.662Z,19.38
2016-09-17T00:02:19.562Z,19.36
2016-09-17T00:03:19.205Z,19.31
2016-09-17T00:04:19.655Z,19.25
2016-09-17T00:05:19.213Z,19.17
2016-09-17T00:06:18.566Z,19.24
2016-09-17T00:07:19.120Z,19.25
2016-09-17T00:08:19.088Z,19.21
2016-09-17T00:09:19.029Z,19.24
2016-09-17T00:10:19.067Z,19.21
2016-09-17T00:11:18.636Z,19.18
2016-09-17T00:12:19.116Z,19.18
2016-09-17T00:13:19.148Z,19.14
2016-09-17T00:14:18.798Z,19.01
2016-09-17T00:15:18.756Z,18.99
2016-09-17T00:16:18.611Z,19.02
2016-09-17T00:17:18.656Z,18.98
2016-09-17T00:18:18.623Z,19.06
2016-09-17T00:19:18.263Z,18.92
2016-09-17T00:20:18.524Z,18.8
2016-09-17T00:21:18.189Z,18.76
2016-09-17T00:22:18.439Z,18.77
2016-09-17T00:23:18.390Z,18.8
2016-09-17T00:24:18.346Z,18.9
2016-09-17T00:25:18.435Z,19.02
2016-09-17T00:26:18.481Z,19.06
2016-09-17T00:27:18.210Z,19.18
2016-09-17T00:28:18.166Z,19.01
2016-09-17T00:29:18.114Z,19.06
2016-09-17T00:30:17.765Z,19.14
2016-09-17T00:31:18.285Z,19.08
2016-09-17T00:32:17.662Z,19.17
2016-09-17T00:33:18.132Z,19.11
2016-09-17T00:34:17.884Z,19.13
2016-09-17T00:35:17.536Z,19.23
2016-09-17T00:36:17.496Z,19.2
2016-09-17T00:37:17.433Z,19.18
2016-09-17T00:38:18.630Z,19.18
2016-09-17T00:39:17.653Z,19.2
2016-09-17T00:40:17.307Z,19.18
2016-09-17T00:41:17.549Z,19.11
2016-09-17T00:42:17.504Z,19.05
2016-09-17T00:43:17.468Z,18.98
2016-09-17T00:44:17.655Z,19.01
2016-09-17T00:45:17.376Z,18.91
2016-09-17T00:46:17.333Z,18.92
2016-09-17T00:47:17.679Z,18.82
2016-09-17T00:48:17.241Z,18.77
2016-09-17T00:49:16.899Z,18.68
2016-09-17T00:50:17.141Z,18.67
2016-09-17T00:51:17.299Z,18.62
2016-09-17T00:52:17.064Z,18.7
2016-09-17T00:53:17.027Z,18.68
2016-09-17T00:54:16.973Z,18.65
2016-09-17T00:55:16.616Z,18.54
2016-09-17T00:56:17.085Z,18.39
2016-09-17T00:57:16.813Z,18.42
2016-09-17T00:58:16.772Z,18.22
2016-09-17T00:59:16.429Z,18.18
2016-09-17T01:00:16.687Z,18.19
2016-09-17T01:01:16.831Z,18.1
2016-09-17T01:02:16.592Z,18.13
2016-09-17T01:03:16.643Z,18.09
2016-09-17T01:04:16.235Z,18.09
2016-09-17T01:05:16.341Z,18.27
2016-09-17T01:06:16.410Z,18.29
2016-09-17T01:07:16.553Z,18.28
2016-09-17T01:08:16.717Z,18.42
2016-09-17T01:09:16.281Z,18.42
2016-09-17T01:10:16.230Z,18.47
2016-09-17T01:11:16.172Z,18.47
2016-09-17T01:12:16.132Z,18.65
2016-09-17T01:13:15.774Z,18.64
2016-09-17T01:14:15.787Z,18.61
2016-09-17T01:15:16.013Z,18.44
2016-09-17T01:16:16.025Z,18.33
2016-09-17T01:17:16.293Z,18.42
2016-09-17T01:18:15.562Z,18.44
2016-09-17T01:19:15.816Z,18.52
2016-09-17T01:20:15.482Z,18.49
2016-09-17T01:21:15.409Z,18.55
2016-09-17T01:22:15.420Z,18.54
2016-09-17T01:23:15.529Z,18.5
2016-09-17T01:24:15.266Z,18.61
2016-09-17T01:25:15.224Z,18.7
2016-09-17T01:26:15.371Z,18.59
2016-09-17T01:27:15.453Z,18.65
2016-09-17T01:28:15.412Z,18.72
2016-09-17T01:29:15.739Z,18.72
2016-09-17T01:30:15.301Z,18.68
2016-09-17T01:31:14.943Z,18.68
2016-09-17T01:32:15.408Z,18.65
2016-09-17T01:33:15.159Z,18.76
2016-09-17T01:34:14.806Z,18.79
2016-09-17T01:35:15.071Z,18.79
2016-09-17T01:36:15.025Z,18.84
2016-09-17T01:37:14.966Z,18.8
2016-09-17T01:38:14.931Z,18.77
2016-09-17T01:39:14.891Z,18.77
2016-09-17T01:40:14.583Z,18.83
2016-09-17T01:41:14.487Z,18.87
2016-09-17T01:42:14.948Z,18.73
2016-09-17T01:43:14.712Z,18.68
2016-09-17T01:44:14.654Z,18.73
2016-09-17T01:45:14.598Z,18.67
2016-09-17T01:46:14.559Z,18.65
2016-09-17T01:47:14.520Z,18.59
2016-09-17T01:48:14.143Z,18.54
2016-09-17T01:49:14.422Z,18.46
2016-09-17T01:50:14.380Z,18.46
2016-09-17T01:51:14.330Z,18.44
2016-09-17T01:52:14.289Z,18.52
2016-09-17T01:53:13.966Z,18.58
2016-09-17T01:54:13.875Z,18.44
2016-09-17T01:55:13.825Z,18.5
2016-09-17T01:56:14.090Z,18.54
2016-09-17T01:57:14.061Z,18.59
2016-09-17T01:58:14.200Z,18.55
2016-09-17T01:59:13.948Z,18.62
2016-09-17T02:00:13.599Z,18.64
2016-09-17T02:01:14.058Z,18.65
2016-09-17T02:02:14.029Z,18.61
2016-09-17T02:03:13.762Z,18.61
2016-09-17T02:04:14.004Z,18.46
2016-09-17T02:05:13.678Z,18.54
2016-09-17T02:06:13.383Z,18.42
2016-09-17T02:07:13.688Z,18.43
2016-09-17T02:08:13.440Z,18.46
2016-09-17T02:09:13.497Z,18.44
2016-09-17T02:10:13.640Z,18.55
2016-09-17T02:11:13.101Z,18.59
2016-09-17T02:12:13.628Z,18.58
2016-09-17T02:13:13.015Z,18.47
2016-09-17T02:14:13.262Z,18.62
2016-09-17T02:15:14.489Z,18.65
2016-09-17T02:16:12.860Z,18.68
2016-09-17T02:17:12.859Z,18.7
2016-09-17T02:18:13.051Z,18.59
2016-09-17T02:19:12.774Z,18.47
2016-09-17T02:20:12.985Z,18.5
2016-09-17T02:21:12.623Z,18.49
2016-09-17T02:22:12.887Z,18.47
2016-09-17T02:23:12.747Z,18.55
2016-09-17T02:24:12.815Z,18.46
2016-09-17T02:25:12.755Z,18.57
2016-09-17T02:26:12.415Z,18.57
2016-09-17T02:27:12.661Z,18.64
2016-09-17T02:28:12.635Z,18.62
2016-09-17T02:29:12.572Z,18.64
2016-09-17T02:30:11.904Z,18.65
2016-09-17T02:31:12.487Z,18.54
2016-09-17T02:32:12.127Z,18.7
2016-09-17T02:33:12.266Z,18.65
2016-09-17T02:34:12.330Z,18.68
2016-09-17T02:35:12.294Z,18.67
2016-09-17T02:36:12.233Z,18.79
2016-09-17T02:37:11.899Z,18.8
2016-09-17T02:38:12.150Z,18.86
2016-09-17T02:39:12.090Z,18.91
2016-09-17T02:40:11.753Z,18.83
2016-09-17T02:41:12.263Z,18.79
2016-09-17T02:42:11.650Z,18.7
2016-09-17T02:43:11.930Z,18.64
2016-09-17T02:44:11.565Z,18.57
2016-09-17T02:45:12.035Z,18.5
2016-09-17T02:46:12.985Z,18.49
2016-09-17T02:47:11.948Z,18.55
2016-09-17T02:48:12.342Z,18.52
2016-09-17T02:49:11.354Z,18.52
2016-09-17T02:50:11.607Z,18.58
2016-09-17T02:51:12.043Z,18.49
2016-09-17T02:52:11.506Z,18.44
2016-09-17T02:53:11.489Z,18.54
2016-09-17T02:54:11.423Z,18.49
2016-09-17T02:55:11.353Z,18.42
2016-09-17T02:56:11.318Z,18.44
2016-09-17T02:57:10.971Z,18.39
2016-09-17T02:58:11.216Z,18.36
2016-09-17T02:59:11.179Z,18.4
2016-09-17T03:00:11.123Z,18.43
2016-09-17T03:01:10.847Z,18.47
2016-09-17T03:02:11.035Z,18.4
2016-09-17T03:03:10.994Z,18.39
2016-09-17T03:04:10.951Z,18.44
2016-09-17T03:05:10.901Z,18.4
2016-09-17T03:06:10.910Z,18.46
2016-09-17T03:07:11.010Z,18.44
2016-09-17T03:08:10.455Z,18.46
2016-09-17T03:09:10.604Z,18.54
2016-09-17T03:10:10.668Z,18.4
2016-09-17T03:11:10.626Z,18.33
2016-09-17T03:12:10.260Z,18.49
2016-09-17T03:13:10.269Z,18.47
2016-09-17T03:14:10.182Z,18.4
2016-09-17T03:15:10.125Z,18.47
2016-09-17T03:16:10.102Z,18.5
2016-09-17T03:17:10.037Z,18.5
2016-09-17T03:18:09.999Z,18.54
2016-09-17T03:19:09.947Z,18.54
2016-09-17T03:20:09.636Z,18.52
2016-09-17T03:21:10.154Z,18.67
2016-09-17T03:22:09.823Z,18.5
2016-09-17T03:23:10.060Z,18.57
2016-09-17T03:24:11.290Z,18.47
2016-09-17T03:25:10.766Z,18.59
2016-09-17T03:26:09.925Z,18.52
2016-09-17T03:27:09.872Z,18.55
2016-09-17T03:28:09.828Z,18.52
2016-09-17T03:29:09.839Z,18.61
2016-09-17T03:30:09.642Z,18.62
2016-09-17T03:31:09.393Z,18.62
2016-09-17T03:32:09.347Z,18.64
2016-09-17T03:33:09.302Z,18.67
2016-09-17T03:34:09.544Z,18.72
2016-09-17T03:35:09.513Z,18.5
2016-09-17T03:36:09.469Z,18.37
2016-09-17T03:37:09.405Z,18.31
2016-09-17T03:38:09.384Z,18.24
2016-09-17T03:39:09.529Z,18.29
2016-09-17T03:40:09.280Z,18.43
2016-09-17T03:41:09.232Z,18.49
2016-09-17T03:42:09.201Z,18.52
2016-09-17T03:43:08.840Z,18.54
2016-09-17T03:44:09.514Z,18.47
2016-09-17T03:45:08.742Z,18.49
2016-09-17T03:46:08.699Z,18.43
2016-09-17T03:47:08.956Z,18.44
2016-09-17T03:48:08.604Z,18.57
2016-09-17T03:49:08.266Z,18.47
2016-09-17T03:50:08.820Z,18.49
2016-09-17T03:51:08.784Z,18.46
2016-09-17T03:52:08.708Z,18.49
2016-09-17T03:53:08.382Z,18.34
2016-09-17T03:54:08.320Z,18.22
2016-09-17T03:55:08.281Z,18.19
2016-09-17T03:56:08.536Z,18.29
2016-09-17T03:57:08.506Z,18.31
2016-09-17T03:58:08.435Z,18.46
2016-09-17T03:59:08.393Z,18.43
2016-09-17T04:00:08.033Z,18.29
2016-09-17T04:01:08.340Z,18.27
2016-09-17T04:02:08.271Z,18.27
2016-09-17T04:03:08.221Z,18.29
2016-09-17T04:04:07.856Z,18.28
2016-09-17T04:05:08.139Z,18.27
2016-09-17T04:06:07.776Z,18.31
2016-09-17T04:07:08.238Z,18.29
2016-09-17T04:08:08.094Z,18.27
2016-09-17T04:09:07.961Z,18.18
2016-09-17T04:10:07.892Z,18.25
2016-09-17T04:11:07.817Z,18.18
2016-09-17T04:12:07.786Z,18.21
2016-09-17T04:13:07.762Z,18.29
2016-09-17T04:14:07.087Z,18.34
2016-09-17T04:15:07.442Z,18.29
2016-09-17T04:16:07.506Z,18.29
2016-09-17T04:17:07.263Z,18.28
2016-09-17T04:18:08.205Z,18.36
2016-09-17T04:19:07.666Z,18.42
2016-09-17T04:20:07.121Z,18.39
2016-09-17T04:21:07.396Z,18.31
2016-09-17T04:22:07.336Z,18.21
2016-09-17T04:23:07.287Z,18.15
2016-09-17T04:24:07.248Z,18.21
2016-09-17T04:25:06.895Z,18.15
2016-09-17T04:26:09.455Z,18.15
2016-09-17T04:27:07.912Z,18.25
2016-09-17T04:28:06.729Z,18.21
2016-09-17T04:29:06.976Z,18.12
2016-09-17T04:30:06.976Z,18.09
2016-09-17T04:31:06.914Z,18.1
2016-09-17T04:32:06.332Z,18.24
2016-09-17T04:33:06.808Z,18.27
2016-09-17T04:34:06.476Z,18.31
2016-09-17T04:35:06.934Z,18.39
2016-09-17T04:36:06.684Z,18.46
2016-09-17T04:37:06.831Z,18.47
2016-09-17T04:38:06.267Z,18.34
2016-09-17T04:39:06.226Z,18.29
2016-09-17T04:40:06.508Z,18.36
2016-09-17T04:41:06.447Z,18.33
2016-09-17T04:42:06.451Z,18.31
2016-09-17T04:43:06.036Z,18.25
2016-09-17T04:44:06.231Z,18.22
2016-09-17T04:45:06.269Z,18.09
2016-09-17T04:46:06.415Z,18.07
2016-09-17T04:47:06.172Z,18.28
2016-09-17T04:48:06.124Z,18.29
2016-09-17T04:49:06.070Z,18.33
2016-09-17T04:50:05.708Z,18.4
2016-09-17T04:51:05.974Z,18.34
2016-09-17T04:52:05.933Z,18.29
2016-09-17T04:53:05.772Z,18.42
2016-09-17T04:54:05.732Z,18.39
2016-09-17T04:55:05.994Z,18.42
2016-09-17T04:56:05.743Z,18.4
2016-09-17T04:57:05.078Z,18.37
2016-09-17T04:58:05.650Z,18.39
2016-09-17T04:59:05.318Z,18.42
2016-09-17T05:00:05.471Z,18.31
2016-09-17T05:01:05.514Z,18.24
2016-09-17T05:02:05.466Z,18.18
2016-09-17T05:03:05.321Z,18.07
2016-09-17T05:04:05.400Z,18.25
2016-09-17T05:05:05.003Z,18.28
2016-09-17T05:06:20.288Z,18.34
2016-09-17T05:07:06.729Z,18.27
2016-09-17T05:08:05.199Z,18.19
2016-09-17T05:09:05.159Z,18.22
2016-09-17T05:10:05.094Z,18.13
2016-09-17T05:11:05.044Z,17.99
2016-09-17T05:12:04.705Z,18.12
2016-09-17T05:13:04.961Z,18.21
2016-09-17T05:14:04.923Z,18.17
2016-09-17T05:15:04.872Z,18.02
2016-09-17T05:16:04.807Z,17.99
2016-09-17T05:17:05.181Z,17.91
2016-09-17T05:18:04.739Z,17.88
2016-09-17T05:19:04.685Z,17.88
2016-09-17T05:20:04.572Z,17.88
2016-09-17T05:21:04.579Z,17.88
2016-09-17T05:22:04.743Z,17.82
2016-09-17T05:23:04.483Z,17.7
2016-09-17T05:24:04.642Z,17.74
2016-09-17T05:25:04.400Z,17.81
2016-09-17T05:26:04.243Z,17.7
2016-09-17T05:27:04.299Z,17.91
2016-09-17T05:28:03.847Z,17.79
2016-09-17T05:29:04.468Z,17.81
2016-09-17T05:30:04.182Z,17.71
2016-09-17T05:31:04.115Z,17.84
2016-09-17T05:32:04.068Z,17.88
2016-09-17T05:33:04.023Z,17.92
2016-09-17T05:34:03.871Z,17.85
2016-09-17T05:35:03.620Z,17.82
2016-09-17T05:36:04.087Z,17.95
2016-09-17T05:37:03.836Z,17.97
2016-09-17T05:38:03.483Z,17.97
2016-09-17T05:39:03.743Z,18.03
2016-09-17T05:40:03.591Z,18
2016-09-17T05:41:03.353Z,18.04
2016-09-17T05:42:03.595Z,18.12
2016-09-17T05:43:03.560Z,18.12
2016-09-17T05:44:03.509Z,18.15
2016-09-17T05:45:05.088Z,18.21
2016-09-17T05:46:03.624Z,18.19
2016-09-17T05:47:03.367Z,18.06
2016-09-17T05:48:03.324Z,18.1
2016-09-17T05:49:17.900Z,18.22
2016-09-17T05:50:05.446Z,18.13
2016-09-17T05:51:03.374Z,18.22
2016-09-17T05:52:03.127Z,18.21
2016-09-17T05:53:02.820Z,18.22
2016-09-17T05:54:03.242Z,18.28
2016-09-17T05:55:03.203Z,18.29
2016-09-17T05:56:02.663Z,18.15
2016-09-17T05:57:02.606Z,18.18
2016-09-17T05:58:02.611Z,18.24
2016-09-17T05:59:02.803Z,18.17
2016-09-17T06:00:02.755Z,18.28
2016-09-17T06:01:02.111Z,18.24
2016-09-17T06:02:02.361Z,18.33
2016-09-17T06:03:02.844Z,18.37
2016-09-17T06:04:02.269Z,18.47
2016-09-17T06:05:02.230Z,18.43
2016-09-17T06:06:02.543Z,18.42
2016-09-17T06:07:03.300Z,18.36
2016-09-17T06:08:02.384Z,18.33
2016-09-17T06:09:02.342Z,18.31
2016-09-17T06:10:02.703Z,18.25
2016-09-17T06:11:01.951Z,18.24
2016-09-17T06:12:02.411Z,18.25
2016-09-17T06:13:02.159Z,18.39
2016-09-17T06:14:01.995Z,18.33
2016-09-17T06:15:02.456Z,18.29
2016-09-17T06:16:02.215Z,18.42
2016-09-17T06:17:01.976Z,18.31
2016-09-17T06:18:01.933Z,18.34
2016-09-17T06:19:02.082Z,18.4
2016-09-17T06:20:01.839Z,18.33
2016-09-17T06:21:01.676Z,18.31
2016-09-17T06:22:01.939Z,18.33
2016-09-17T06:23:01.686Z,18.31
2016-09-17T06:24:01.343Z,18.31
2016-09-17T06:25:01.806Z,18.29
2016-09-17T06:26:01.560Z,18.34
2016-09-17T06:27:01.708Z,18.37
2016-09-17T06:28:01.451Z,18.34
2016-09-17T06:29:01.611Z,18.39
2016-09-17T06:30:01.771Z,18.4
2016-09-17T06:31:01.005Z,18.27
2016-09-17T06:32:00.977Z,18.36
2016-09-17T06:33:01.436Z,18.39
2016-09-17T06:34:00.881Z,18.44
2016-09-17T06:35:01.345Z,18.52
2016-09-17T06:36:01.328Z,18.49
2016-09-17T06:37:00.732Z,18.47
2016-09-17T06:38:01.092Z,18.5
2016-09-17T06:39:00.969Z,18.58
2016-09-17T06:40:01.102Z,18.57
2016-09-17T06:41:01.137Z,18.49
2016-09-17T06:42:00.817Z,18.44
2016-09-17T06:43:00.461Z,18.44
2016-09-17T06:44:00.711Z,18.49
2016-09-17T06:45:00.363Z,18.57
2016-09-17T06:46:02.882Z,18.58
2016-09-17T06:47:00.471Z,18.62
2016-09-17T06:48:00.750Z,18.57
2016-09-17T06:49:00.488Z,18.5
2016-09-17T06:50:00.449Z,18.62
2016-09-17T06:51:00.096Z,18.62
2016-09-17T06:52:00.556Z,18.57
2016-09-17T06:53:00.301Z,18.65
2016-09-17T06:54:00.253Z,18.5
2016-09-17T06:55:00.428Z,18.57
2016-09-17T06:56:00.592Z,18.5
2016-09-17T06:57:00.315Z,18.39
2016-09-17T06:58:00.335Z,18.4
2016-09-17T06:58:59.708Z,18.44
2016-09-17T07:00:00.378Z,18.43
2016-09-17T07:01:00.336Z,18.42
2016-09-17T07:01:59.885Z,18.36
2016-09-17T07:03:00.260Z,18.25
2016-09-17T07:03:59.797Z,18.27
2016-09-17T07:04:59.948Z,18.31
2016-09-17T07:06:03.432Z,18.44
2016-09-17T07:06:59.408Z,18.5
2016-09-17T07:07:59.627Z,18.52
2016-09-17T07:08:59.839Z,18.59
2016-09-17T07:09:59.246Z,18.44
2016-09-17T07:10:59.665Z,18.39
2016-09-17T07:11:59.115Z,18.29
2016-09-17T07:12:59.370Z,18.39
2016-09-17T07:13:59.032Z,18.42
2016-09-17T07:14:59.282Z,18.52
2016-09-17T07:15:58.929Z,18.49
2016-09-17T07:16:58.579Z,18.64
2016-09-17T07:17:59.556Z,18.7
2016-09-17T07:18:59.291Z,18.61
2016-09-17T07:19:59.067Z,18.61
2016-09-17T07:20:58.696Z,18.54
2016-09-17T07:21:59.004Z,18.64
2016-09-17T07:22:58.913Z,18.52
2016-09-17T07:23:58.571Z,18.54
2016-09-17T07:24:58.837Z,18.57
2016-09-17T07:25:59.006Z,18.49
2016-09-17T07:26:58.618Z,18.49
2016-09-17T07:27:59.284Z,18.49
2016-09-17T07:28:58.317Z,18.64
2016-09-17T07:29:58.284Z,18.73
2016-09-17T07:30:58.543Z,18.8
2016-09-17T07:31:58.492Z,18.79
2016-09-17T07:32:57.878Z,18.73
2016-09-17T07:33:58.415Z,18.5
2016-09-17T07:34:58.570Z,18.46
2016-09-17T07:35:58.008Z,18.47
2016-09-17T07:36:58.260Z,18.61
2016-09-17T07:37:58.434Z,18.74
2016-09-17T07:38:58.772Z,18.65
2016-09-17T07:39:58.159Z,18.68
2016-09-17T07:40:58.280Z,18.79
2016-09-17T07:41:58.032Z,18.82
2016-09-17T07:42:57.989Z,18.8
2016-09-17T07:43:57.648Z,18.76
2016-09-17T07:44:57.910Z,18.76
2016-09-17T07:45:57.868Z,18.87
2016-09-17T07:46:57.796Z,18.95
2016-09-17T07:47:57.433Z,18.94
2016-09-17T07:48:57.714Z,18.95
2016-09-17T07:49:57.671Z,19.02
2016-09-17T07:50:57.222Z,18.99
2016-09-17T07:51:57.581Z,18.95
2016-09-17T07:52:57.532Z,19.05
2016-09-17T07:53:57.475Z,18.99
2016-09-17T07:54:57.446Z,18.98
2016-09-17T07:55:57.397Z,19.01
2016-09-17T07:56:57.381Z,18.99
2016-09-17T07:57:57.501Z,18.94
2016-09-17T07:58:56.930Z,18.94
2016-09-17T07:59:56.892Z,19.14
2016-09-17T08:00:57.152Z,19.21
2016-09-17T08:01:57.119Z,19.25
2016-09-17T08:02:57.069Z,19.36
2016-09-17T08:03:57.023Z,19.5
2016-09-17T08:04:57.046Z,19.61
2016-09-17T08:05:57.123Z,19.61
2016-09-17T08:06:56.874Z,19.65
2016-09-17T08:07:56.535Z,19.48
2016-09-17T08:08:56.989Z,19.54
2016-09-17T08:09:56.416Z,19.58
2016-09-17T08:10:56.696Z,19.61
2016-09-17T08:11:56.658Z,19.48
2016-09-17T08:12:56.609Z,19.51
2016-09-17T08:13:56.764Z,19.58
2016-09-17T08:14:56.705Z,19.66
2016-09-17T08:15:56.994Z,19.6
2016-09-17T08:16:56.642Z,19.5
2016-09-17T08:17:56.387Z,19.55
2016-09-17T08:18:56.335Z,19.57
2016-09-17T08:19:56.367Z,19.58
2016-09-17T08:20:55.933Z,19.54
2016-09-17T08:21:56.193Z,19.46
2016-09-17T08:22:56.228Z,19.43
2016-09-17T08:23:56.112Z,19.36
2016-09-17T08:24:55.974Z,19.35
2016-09-17T08:25:56.423Z,19.36
2016-09-17T08:26:55.690Z,19.36
2016-09-17T08:27:55.939Z,19.39
2016-09-17T08:28:55.875Z,19.43
2016-09-17T08:29:55.839Z,19.6
2016-09-17T08:30:55.778Z,19.66
2016-09-17T08:31:55.746Z,19.7
2016-09-17T08:32:55.632Z,19.78
2016-09-17T08:33:55.643Z,19.76
2016-09-17T08:34:55.595Z,19.73
2016-09-17T08:35:55.778Z,19.7
2016-09-17T08:36:55.521Z,19.57
2016-09-17T08:37:55.458Z,19.66
2016-09-17T08:38:55.432Z,19.68
2016-09-17T08:39:55.777Z,19.76
2016-09-17T08:40:55.537Z,19.86
2016-09-17T08:41:55.306Z,19.84
2016-09-17T08:42:55.451Z,19.88
2016-09-17T08:43:55.307Z,19.8
2016-09-17T08:44:55.161Z,19.84
2016-09-17T08:45:55.184Z,19.75
2016-09-17T08:46:57.107Z,19.68
2016-09-17T08:47:55.307Z,19.6
2016-09-17T08:48:54.855Z,19.72
2016-09-17T08:49:54.937Z,19.66
2016-09-17T08:50:55.162Z,19.68
2016-09-17T08:51:54.242Z,19.72
2016-09-17T08:52:54.473Z,19.73
2016-09-17T08:53:54.648Z,19.84
2016-09-17T08:54:54.700Z,19.91
2016-09-17T08:55:54.352Z,19.94
2016-09-17T08:56:54.553Z,19.97
2016-09-17T08:57:54.257Z,20.02
2016-09-17T08:58:54.758Z,20.02
2016-09-17T08:59:54.587Z,19.88
2016-09-17T09:00:54.626Z,19.91
2016-09-17T09:01:54.070Z,20.02
2016-09-17T09:02:54.752Z,19.97
2016-09-17T09:03:54.484Z,19.98
2016-09-17T09:04:54.239Z,20.1
2016-09-17T09:05:54.063Z,20.2
2016-09-17T09:06:54.577Z,20.1
2016-09-17T09:07:54.126Z,20.15
2016-09-17T09:08:54.075Z,20.15
2016-09-17T09:09:54.227Z,20.16
2016-09-17T09:10:53.972Z,20.16
2016-09-17T09:11:54.021Z,20.18
2016-09-17T09:12:56.399Z,20.24
2016-09-17T09:13:54.038Z,20.25
2016-09-17T09:14:53.991Z,20.38
2016-09-17T09:15:53.955Z,20.46
2016-09-17T09:16:53.595Z,20.42
2016-09-17T09:17:53.685Z,20.42
2016-09-17T09:18:54.026Z,20.56
2016-09-17T09:19:53.834Z,20.58
2016-09-17T09:20:53.544Z,20.64
2016-09-17T09:21:53.487Z,20.66
2016-09-17T09:22:53.647Z,20.59
2016-09-17T09:23:52.982Z,20.59
2016-09-17T09:24:53.040Z,20.64
2016-09-17T09:25:53.011Z,20.59
2016-09-17T09:26:53.472Z,20.62
2016-09-17T09:27:53.203Z,20.66
2016-09-17T09:28:52.546Z,20.66
2016-09-17T09:29:53.109Z,20.69
2016-09-17T09:30:53.090Z,20.69
2016-09-17T09:31:52.827Z,20.76
2016-09-17T09:32:53.258Z,20.71
2016-09-17T09:33:52.935Z,20.68
2016-09-17T09:34:52.895Z,20.61
2016-09-17T09:35:52.755Z,20.56
2016-09-17T09:36:53.031Z,20.47
2016-09-17T09:37:52.774Z,20.46
2016-09-17T09:38:52.100Z,20.41
2016-09-17T09:39:52.369Z,20.39
2016-09-17T09:40:52.618Z,20.49
2016-09-17T09:41:52.275Z,20.61
2016-09-17T09:42:52.731Z,20.41
2016-09-17T09:43:52.185Z,20.39
2016-09-17T09:44:52.133Z,20.49
2016-09-17T09:45:52.403Z,20.46
2016-09-17T09:46:52.067Z,20.39
2016-09-17T09:47:52.200Z,20.38
2016-09-17T09:48:52.260Z,20.41
2016-09-17T09:49:51.908Z,20.53
2016-09-17T09:50:52.195Z,20.54
2016-09-17T09:51:52.166Z,20.64
2016-09-17T09:52:52.313Z,20.71
2016-09-17T09:53:52.444Z,20.77
2016-09-17T09:54:51.983Z,20.77
2016-09-17T09:55:51.962Z,20.77
2016-09-17T09:56:51.897Z,20.72
2016-09-17T09:57:52.086Z,20.74
2016-09-17T09:58:52.017Z,20.62
2016-09-17T09:59:51.783Z,20.71
2016-09-17T10:00:51.714Z,20.77
2016-09-17T10:01:51.384Z,20.8
2016-09-17T10:02:51.519Z,20.87
2016-09-17T10:03:51.793Z,20.84
2016-09-17T10:04:51.551Z,20.96
2016-09-17T10:05:51.446Z,21.02
2016-09-17T10:06:51.484Z,21.13
2016-09-17T10:07:51.405Z,21.09
2016-09-17T10:08:51.263Z,21.09
2016-09-17T10:09:51.323Z,20.93
2016-09-17T10:10:51.271Z,20.96
2016-09-17T10:11:51.423Z,20.99
2016-09-17T10:12:51.208Z,21.08
2016-09-17T10:13:50.907Z,21.05
2016-09-17T10:14:51.110Z,21.11
2016-09-17T10:15:51.057Z,21.09
2016-09-17T10:16:51.061Z,21.04
2016-09-17T10:17:51.005Z,21.09
2016-09-17T10:18:50.624Z,21.14
2016-09-17T10:19:51.291Z,21.14
2016-09-17T10:20:50.841Z,21.26
2016-09-17T10:21:50.484Z,21.44
2016-09-17T10:22:50.734Z,21.46
2016-09-17T10:23:50.417Z,21.42
2016-09-17T10:24:50.674Z,21.51
2016-09-17T10:25:50.602Z,21.5
2016-09-17T10:26:50.564Z,21.41
2016-09-17T10:27:50.525Z,21.45
2016-09-17T10:28:50.479Z,21.38
2016-09-17T10:29:50.758Z,21.41
2016-09-17T10:30:50.096Z,21.35
2016-09-17T10:31:50.356Z,21.56
2016-09-17T10:32:50.304Z,21.45
2016-09-17T10:33:50.141Z,21.32
2016-09-17T10:34:50.620Z,21.29
2016-09-17T10:35:50.366Z,21.35
2016-09-17T10:36:51.022Z,21.36
2016-09-17T10:37:50.291Z,21.42
2016-09-17T10:38:50.032Z,21.42
2016-09-17T10:39:49.699Z,21.44
2016-09-17T10:40:50.151Z,21.54
2016-09-17T10:41:49.593Z,21.53
2016-09-17T10:42:49.856Z,21.45
2016-09-17T10:43:49.528Z,21.45
2016-09-17T10:44:49.763Z,21.42
2016-09-17T10:45:49.719Z,21.42
2016-09-17T10:46:49.725Z,21.45
2016-09-17T10:47:49.395Z,21.5
2016-09-17T10:48:49.167Z,21.45
2016-09-17T10:49:49.243Z,21.44
2016-09-17T10:50:49.509Z,21.39
2016-09-17T10:51:49.561Z,21.35
2016-09-17T10:52:49.409Z,21.34
2016-09-17T10:53:49.061Z,21.38
2016-09-17T10:54:49.319Z,21.45
2016-09-17T10:55:48.971Z,21.56
2016-09-17T10:56:50.076Z,21.59
2016-09-17T10:57:49.373Z,21.61
2016-09-17T10:58:49.147Z,21.61
2016-09-17T10:59:48.863Z,21.66
2016-09-17T11:00:49.053Z,21.66
2016-09-17T11:01:49.012Z,21.63
2016-09-17T11:02:48.983Z,21.76
2016-09-17T11:03:48.609Z,21.75
2016-09-17T11:04:48.567Z,21.94
2016-09-17T11:05:48.828Z,22.04
2016-09-17T11:06:48.769Z,21.99
2016-09-17T11:07:48.128Z,22.01
2016-09-17T11:08:48.692Z,21.95
2016-09-17T11:09:48.664Z,21.95
2016-09-17T11:10:48.606Z,22.02
2016-09-17T11:11:48.271Z,21.91
2016-09-17T11:12:48.511Z,21.98
2016-09-17T11:13:48.391Z,22.01
2016-09-17T11:14:47.827Z,21.99
2016-09-17T11:15:48.088Z,22.06
2016-09-17T11:16:55.247Z,22.22
2016-09-17T11:17:49.217Z,22.28
2016-09-17T11:18:48.258Z,22.17
2016-09-17T11:19:48.214Z,22.23
2016-09-17T11:20:48.172Z,22.23
2016-09-17T11:21:48.112Z,22.35
2016-09-17T11:22:47.964Z,22.34
2016-09-17T11:23:49.464Z,22.39
2016-09-17T11:24:47.706Z,22.43
2016-09-17T11:25:48.163Z,22.35
2016-09-17T11:26:47.588Z,22.34
2016-09-17T11:27:47.743Z,22.32
2016-09-17T11:28:48.039Z,22.44
2016-09-17T11:29:47.461Z,22.49
2016-09-17T11:30:47.730Z,22.56
2016-09-17T11:31:47.585Z,22.6
2016-09-17T11:32:47.530Z,22.62
2016-09-17T11:33:47.586Z,22.59
2016-09-17T11:34:47.560Z,22.49
2016-09-17T11:35:47.204Z,22.49
2016-09-17T11:36:47.492Z,22.54
2016-09-17T11:37:47.482Z,22.41
2016-09-17T11:38:47.441Z,22.47
2016-09-17T11:39:47.327Z,22.46
2016-09-17T11:40:47.250Z,22.31
2016-09-17T11:41:49.558Z,22.31
2016-09-17T11:42:47.897Z,22.35
2016-09-17T11:43:47.062Z,22.27
2016-09-17T11:44:47.114Z,22.31
2016-09-17T11:45:47.085Z,22.35
2016-09-17T11:46:47.021Z,22.34
2016-09-17T11:47:46.670Z,22.41
2016-09-17T11:48:46.936Z,22.44
2016-09-17T11:49:46.891Z,22.44
2016-09-17T11:50:46.550Z,22.6
2016-09-17T11:51:46.697Z,22.59
2016-09-17T11:52:46.142Z,22.69
2016-09-17T11:53:46.721Z,22.77
2016-09-17T11:54:46.701Z,22.83
2016-09-17T11:55:46.009Z,22.94
2016-09-17T11:56:46.587Z,22.87
2016-09-17T11:57:46.598Z,22.8
2016-09-17T11:58:46.191Z,22.71
2016-09-17T11:59:46.559Z,22.62
2016-09-17T12:00:46.103Z,22.62
2016-09-17T12:01:46.125Z,22.56
2016-09-17T12:02:46.449Z,22.62
2016-09-17T12:03:46.298Z,22.59
2016-09-17T12:04:46.440Z,22.62
2016-09-17T12:05:46.196Z,22.65
2016-09-17T12:06:46.148Z,22.6
2016-09-17T12:07:46.312Z,22.72
2016-09-17T12:08:46.285Z,22.78
2016-09-17T12:09:45.714Z,22.82
2016-09-17T12:10:45.981Z,22.72
2016-09-17T12:11:46.137Z,22.74
2016-09-17T12:12:45.890Z,22.78
2016-09-17T12:13:45.546Z,22.8
2016-09-17T12:14:45.810Z,22.77
2016-09-17T12:15:45.464Z,22.74
2016-09-17T12:16:45.755Z,22.71
2016-09-17T12:17:45.373Z,22.8
2016-09-17T12:18:45.660Z,22.93
2016-09-17T12:19:45.592Z,22.93
2016-09-17T12:20:45.542Z,22.84
2016-09-17T12:21:45.509Z,22.92
2016-09-17T12:22:45.449Z,23.01
2016-09-17T12:23:45.121Z,23.04
2016-09-17T12:24:45.385Z,23.17
2016-09-17T12:25:45.325Z,23.29
2016-09-17T12:26:45.283Z,23.27
2016-09-17T12:27:44.929Z,23.4
2016-09-17T12:28:45.211Z,23.27
2016-09-17T12:29:45.357Z,23.27
2016-09-17T12:30:45.104Z,23.11
2016-09-17T12:31:44.759Z,23.01
2016-09-17T12:32:45.007Z,22.92
2016-09-17T12:33:44.853Z,22.92
2016-09-17T12:34:45.158Z,22.83
2016-09-17T12:35:44.578Z,22.92
2016-09-17T12:36:44.929Z,22.86
2016-09-17T12:37:44.191Z,22.75
2016-09-17T12:38:44.960Z,22.75
2016-09-17T12:39:44.979Z,22.78
2016-09-17T12:40:45.076Z,22.8
2016-09-17T12:41:44.629Z,22.86
2016-09-17T12:42:44.595Z,22.84
2016-09-17T12:43:44.545Z,22.9
2016-09-17T12:44:44.504Z,22.84
2016-09-17T12:45:44.161Z,22.87
2016-09-17T12:46:44.110Z,22.84
2016-09-17T12:47:44.056Z,22.82
2016-09-17T12:48:44.526Z,22.75
2016-09-17T12:49:44.174Z,22.75
2016-09-17T12:50:48.372Z,22.69
2016-09-17T12:51:44.595Z,22.71
2016-09-17T12:52:44.162Z,22.64
2016-09-17T12:53:46.203Z,22.68